Terminal Aerodrome Forecast
Issued by NWS

Home | Current Version | Previous Version | Text Only | Print | Product List | Glossary On
Versions: 1 2 3 4 5 6 7 8 9 10 11 12 13 14
809
FTAK31 PAJN 301415 AAA
TAFAPG
TAF AMD
PAPG 301415Z 3014/3112 VRB03KT P6SM -SHRA SCT015 OVC035
      TEMPO 3014/3018 4SM -SHRA
     FM310000 09004KT P6SM VCSH BKN050
      AMD LTD TO CLD VIS AND WIND 3012/3015=

USA.gov is the U.S. government's official web portal to all federal, state and local government web resources and services.